Royal, Iowa
Current Conditions -  °F | °C
As of 10:53 AM on Saturday 20 Dec 2014 (Local Time) from KSPW Reporting Station
Haze Haze  
Wind Chill: 22°   Ceiling: 500
Heat Index: 31°   Visibility: 5mi
Dew Point: 28°   Wind: 10mph
Humidity: 89%   Direction: 170°S
Pressure: 30.11"   Gusts: NA
Location:  43.07°N, 95.28°W
Report Text: KSPW 201653Z AUTO 17009KT 5SM BR OVC005 M01/M02 A3011 RMK AO2 SLP212 T10061022 TSNO
Loading
Personal Weather Stations






























Interactive Weather Map New forecast layout! Learn more

10-Day Weather Forecast

Advertisements
Track Severe Weather on mobile